createdAt,value
2022-08-24T00:01:47.094Z,2.85
2022-08-24T00:06:42.853Z,3.17
2022-08-24T00:11:35.958Z,3.40
2022-08-24T00:16:29.395Z,3.20
2022-08-24T00:18:56.184Z,3.90
2022-08-24T00:23:49.561Z,3.40
2022-08-24T00:26:16.934Z,3.70
2022-08-24T00:28:46.293Z,3.53
2022-08-24T00:31:13.947Z,3.40
2022-08-24T00:33:40.947Z,3.10
2022-08-24T00:36:08.424Z,2.88
2022-08-24T00:38:35.701Z,3.17
2022-08-24T00:41:03.314Z,2.97
2022-08-24T00:43:30.202Z,3.65
2022-08-24T00:45:59.893Z,3.30
2022-08-24T00:48:30.551Z,3.25
2022-08-24T00:51:02.503Z,3.50
2022-08-24T00:53:34.689Z,3.40
2022-08-24T00:56:06.660Z,2.97
2022-08-24T00:58:39.460Z,3.20
2022-08-24T01:01:09.266Z,3.20
2022-08-24T01:03:37.917Z,3.47
2022-08-24T01:06:05.507Z,3.25
2022-08-24T01:08:32.190Z,3.28
2022-08-24T01:13:28.946Z,3.20
2022-08-24T01:16:00.239Z,2.88
2022-08-24T01:18:46.571Z,3.08
2022-08-24T01:21:23.383Z,3.50
2022-08-24T01:23:55.867Z,3.00
2022-08-24T01:26:52.546Z,3.33
2022-08-24T01:29:23.862Z,2.67
2022-08-24T01:31:51.186Z,3.20
2022-08-24T01:34:18.071Z,2.88
2022-08-24T01:36:55.951Z,3.35
2022-08-24T01:39:28.422Z,4.15
2022-08-24T01:41:56.092Z,3.15
2022-08-24T01:44:25.130Z,3.67
2022-08-24T01:46:54.180Z,3.33
2022-08-24T01:49:24.719Z,3.63
2022-08-24T01:51:51.349Z,3.03
2022-08-24T01:56:45.434Z,3.67
2022-08-24T01:59:12.788Z,4.38
2022-08-24T02:01:48.891Z,3.75
2022-08-24T02:04:17.693Z,3.97
2022-08-24T02:06:46.869Z,3.55
2022-08-24T02:09:15.430Z,3.95
2022-08-24T02:11:42.536Z,3.72
2022-08-24T02:14:13.438Z,4.22
2022-08-24T02:16:41.946Z,4.20
2022-08-24T02:19:08.655Z,3.67
2022-08-24T02:24:02.690Z,4.03
2022-08-24T02:26:30.463Z,4.75
2022-08-24T02:28:59.234Z,3.92
2022-08-24T02:31:27.520Z,4.00
2022-08-24T02:33:55.071Z,4.05
2022-08-24T02:38:54.819Z,4.60
2022-08-24T02:41:25.474Z,4.07
2022-08-24T02:43:53.534Z,4.43
2022-08-24T02:46:23.323Z,4.15
2022-08-24T02:49:07.103Z,3.78
2022-08-24T02:51:43.950Z,4.53
2022-08-24T02:54:17.726Z,3.78
2022-08-24T02:56:45.534Z,3.80
2022-08-24T02:59:12.383Z,3.58
2022-08-24T03:01:39.116Z,3.95
2022-08-24T03:06:33.571Z,3.97
2022-08-24T03:09:00.378Z,3.75
2022-08-24T03:11:28.424Z,4.28
2022-08-24T03:13:58.374Z,4.07
2022-08-24T03:16:29.078Z,4.13
2022-08-24T03:18:56.064Z,4.07
2022-08-24T03:21:24.859Z,4.03
2022-08-24T03:23:52.430Z,4.00
2022-08-24T03:26:19.505Z,4.30
2022-08-24T03:28:46.131Z,3.97
2022-08-24T03:31:13.187Z,4.63
2022-08-24T03:33:40.417Z,4.45
2022-08-24T03:36:10.122Z,4.18
2022-08-24T03:38:41.040Z,4.30
2022-08-24T03:41:07.912Z,5.72
2022-08-24T03:46:19.973Z,26.70
2022-08-24T03:48:47.752Z,30.65
2022-08-24T03:51:19.531Z,31.83
2022-08-24T03:53:47.818Z,26.95
2022-08-24T03:56:14.890Z,21.00
2022-08-24T03:58:41.805Z,14.65
2022-08-24T04:01:09.989Z,11.35
2022-08-24T04:03:43.362Z,9.70
2022-08-24T04:06:11.951Z,7.47
2022-08-24T04:08:40.502Z,6.60
2022-08-24T04:11:11.814Z,6.40
2022-08-24T04:13:38.366Z,5.70
2022-08-24T04:16:10.378Z,5.43
2022-08-24T04:18:37.252Z,4.80
2022-08-24T04:23:41.254Z,4.65
2022-08-24T04:26:15.576Z,3.70
2022-08-24T04:28:42.562Z,4.30
2022-08-24T04:31:09.340Z,4.85
2022-08-24T04:33:41.923Z,4.82
2022-08-24T04:36:10.331Z,4.07
2022-08-24T04:38:42.938Z,4.57
2022-08-24T04:41:42.558Z,4.65
2022-08-24T04:44:10.569Z,4.78
2022-08-24T04:46:38.885Z,4.70
2022-08-24T04:49:05.480Z,4.45
2022-08-24T04:51:32.864Z,3.97
2022-08-24T04:54:05.075Z,4.65
2022-08-24T04:56:31.656Z,3.83
2022-08-24T05:01:27.539Z,3.97
2022-08-24T05:03:55.969Z,3.10
2022-08-24T05:06:27.645Z,3.47
2022-08-24T05:08:55.233Z,3.25
2022-08-24T05:11:23.280Z,2.80
2022-08-24T05:13:55.997Z,2.20
2022-08-24T05:16:24.769Z,2.60
2022-08-24T05:18:52.334Z,2.10
2022-08-24T05:21:21.761Z,2.47
2022-08-24T05:23:49.580Z,2.30
2022-08-24T05:26:22.323Z,2.72
2022-08-24T05:28:49.372Z,1.83
2022-08-24T05:31:19.255Z,2.42
2022-08-24T05:33:46.248Z,2.22
2022-08-24T05:36:22.613Z,2.50
2022-08-24T05:38:51.877Z,2.38
2022-08-24T05:41:19.172Z,1.88
2022-08-24T05:43:47.584Z,2.25
2022-08-24T05:46:14.933Z,2.20
2022-08-24T05:48:41.964Z,2.10
2022-08-24T05:51:21.590Z,1.92
2022-08-24T05:53:56.886Z,1.90
2022-08-24T05:56:31.736Z,2.13
2022-08-24T05:59:00.102Z,2.25
2022-08-24T06:01:27.390Z,1.90
2022-08-24T06:03:57.347Z,2.30
2022-08-24T06:06:24.961Z,2.20
2022-08-24T06:08:55.160Z,2.55
2022-08-24T06:11:32.640Z,2.55
2022-08-24T06:14:07.662Z,2.47
2022-08-24T06:16:38.937Z,2.47
2022-08-24T06:19:06.930Z,2.60
2022-08-24T06:21:33.650Z,2.65
2022-08-24T06:24:00.847Z,2.40
2022-08-24T06:26:49.954Z,2.63
2022-08-24T06:29:19.076Z,2.50
2022-08-24T06:31:54.802Z,3.05
2022-08-24T06:34:26.001Z,3.10
2022-08-24T06:36:52.985Z,2.83
2022-08-24T06:39:22.276Z,2.92
2022-08-24T06:41:51.422Z,3.28
2022-08-24T06:44:29.164Z,3.33
2022-08-24T06:47:03.926Z,3.05
2022-08-24T06:49:31.222Z,3.58
2022-08-24T06:51:58.391Z,2.83
2022-08-24T06:54:24.949Z,2.78
2022-08-24T06:56:51.635Z,3.10
2022-08-24T06:59:19.072Z,3.58
2022-08-24T07:01:45.778Z,3.33
2022-08-24T07:04:13.778Z,4.05
2022-08-24T07:06:55.738Z,3.88
2022-08-24T07:09:25.377Z,4.05
2022-08-24T07:11:52.992Z,3.95
2022-08-24T07:14:19.982Z,3.90
2022-08-24T07:16:47.851Z,3.55
2022-08-24T07:19:15.800Z,4.13
2022-08-24T07:21:42.657Z,3.67
2022-08-24T07:24:10.769Z,3.65
2022-08-24T07:26:39.619Z,3.38
2022-08-24T07:29:30.657Z,3.83
2022-08-24T07:31:59.207Z,3.20
2022-08-24T07:34:37.457Z,3.33
2022-08-24T07:37:07.843Z,3.45
2022-08-24T07:39:36.690Z,3.45
2022-08-24T07:42:29.555Z,3.35
2022-08-24T07:44:51.770Z,3.75
2022-08-24T07:47:37.683Z,3.58
2022-08-24T07:50:13.925Z,3.70
2022-08-24T07:52:41.594Z,3.72
2022-08-24T07:55:09.360Z,3.72
2022-08-24T07:57:39.493Z,4.07
2022-08-24T08:00:09.857Z,3.28
2022-08-24T08:02:43.089Z,2.78
2022-08-24T08:05:10.431Z,3.30
2022-08-24T08:07:45.692Z,3.13
2022-08-24T08:10:13.858Z,2.90
2022-08-24T08:12:41.271Z,3.65
2022-08-24T08:15:09.575Z,2.90
2022-08-24T08:17:39.391Z,3.17
2022-08-24T08:20:08.986Z,2.92
2022-08-24T08:22:54.773Z,2.95
2022-08-24T08:25:42.452Z,3.05
2022-08-24T08:28:25.469Z,3.30
2022-08-24T08:30:53.926Z,2.58
2022-08-24T08:33:20.700Z,3.38
2022-08-24T08:35:49.095Z,3.30
2022-08-24T08:38:15.999Z,3.35
2022-08-24T08:40:45.650Z,3.10
2022-08-24T08:43:39.943Z,2.45
2022-08-24T08:46:16.625Z,2.72
2022-08-24T08:49:24.896Z,2.83
2022-08-24T08:52:27.227Z,2.53
2022-08-24T08:55:21.789Z,2.33
2022-08-24T08:58:26.327Z,2.63
2022-08-24T09:01:32.785Z,2.03
2022-08-24T09:04:29.937Z,2.03
2022-08-24T09:07:17.252Z,2.35
2022-08-24T09:10:02.387Z,2.47
2022-08-24T09:12:55.664Z,2.13
2022-08-24T09:15:40.777Z,2.00
2022-08-24T09:18:41.441Z,1.88
2022-08-24T09:21:33.728Z,2.33
2022-08-24T09:24:06.286Z,2.28
2022-08-24T09:26:48.292Z,1.90
2022-08-24T09:29:58.311Z,1.88
2022-08-24T09:32:36.459Z,2.03
2022-08-24T09:35:26.826Z,1.73
2022-08-24T09:38:01.908Z,1.90
2022-08-24T09:41:12.388Z,1.70
2022-08-24T09:43:51.978Z,2.03
2022-08-24T09:46:45.339Z,2.00
2022-08-24T09:49:44.559Z,1.73
2022-08-24T09:52:45.752Z,1.80
2022-08-24T09:55:51.376Z,2.03
2022-08-24T09:58:20.621Z,1.63
2022-08-24T10:01:10.474Z,2.40
2022-08-24T10:03:49.285Z,1.95
2022-08-24T10:06:53.339Z,1.80
2022-08-24T10:09:50.326Z,1.63
2022-08-24T10:12:39.946Z,1.85
2022-08-24T10:15:10.923Z,1.90
2022-08-24T10:17:42.922Z,2.00
2022-08-24T10:20:23.909Z,2.17
2022-08-24T10:23:10.692Z,1.95
2022-08-24T10:25:54.324Z,1.90
2022-08-24T10:28:43.183Z,1.63
2022-08-24T10:31:13.004Z,2.03
2022-08-24T10:34:02.013Z,1.67
2022-08-24T10:36:44.718Z,1.90
2022-08-24T10:39:36.017Z,1.90
2022-08-24T10:42:02.455Z,2.15
2022-08-24T10:44:49.185Z,1.70
2022-08-24T10:47:23.223Z,1.73
2022-08-24T10:50:30.856Z,1.67
2022-08-24T10:53:13.359Z,1.95
2022-08-24T10:55:40.599Z,1.70
2022-08-24T10:58:29.523Z,1.80
2022-08-24T11:01:04.216Z,1.73
2022-08-24T11:03:31.157Z,2.10
2022-08-24T11:05:57.971Z,2.13
2022-08-24T11:08:28.042Z,2.33
2022-08-24T11:11:11.671Z,1.83
2022-08-24T11:13:53.590Z,1.75
2022-08-24T11:16:27.618Z,2.05
2022-08-24T11:18:56.901Z,2.20
2022-08-24T11:21:49.391Z,2.08
2022-08-24T11:24:18.929Z,2.33
2022-08-24T11:26:51.147Z,2.15
2022-08-24T11:29:27.388Z,2.13
2022-08-24T11:31:54.097Z,2.15
2022-08-24T11:34:37.634Z,1.92
2022-08-24T11:37:10.619Z,1.83
2022-08-24T11:39:37.848Z,2.10
2022-08-24T11:42:13.117Z,1.75
2022-08-24T11:44:49.860Z,2.00
2022-08-24T11:47:48.396Z,1.85
2022-08-24T11:53:02.523Z,1.98
2022-08-24T11:56:07.997Z,1.70
2022-08-24T11:58:47.881Z,2.00
2022-08-24T12:01:34.824Z,2.10
2022-08-24T12:04:35.273Z,2.17
2022-08-24T12:07:15.057Z,1.75
2022-08-24T12:10:00.027Z,2.17
2022-08-24T12:12:41.519Z,2.00
2022-08-24T12:15:14.738Z,2.28
2022-08-24T12:17:51.113Z,2.22
2022-08-24T12:20:31.996Z,2.15
2022-08-24T12:23:08.571Z,1.92
2022-08-24T12:28:54.421Z,2.40
2022-08-24T12:31:52.452Z,2.05
2022-08-24T12:37:01.042Z,2.00
2022-08-24T12:39:36.143Z,2.10
2022-08-24T12:42:17.197Z,2.08
2022-08-24T12:45:13.410Z,1.95
2022-08-24T12:48:01.841Z,2.17
2022-08-24T12:50:42.707Z,2.10
2022-08-24T12:53:33.187Z,2.03
2022-08-24T12:56:18.419Z,1.90
2022-08-24T12:59:07.641Z,1.80
2022-08-24T13:01:44.600Z,1.75
2022-08-24T13:04:32.097Z,1.90
2022-08-24T13:07:06.440Z,1.80
2022-08-24T13:09:34.414Z,1.50
2022-08-24T13:12:32.853Z,2.03
2022-08-24T13:15:26.203Z,1.33
2022-08-24T13:17:57.602Z,1.90
2022-08-24T13:20:34.697Z,1.65
2022-08-24T13:23:13.229Z,1.83
2022-08-24T13:25:51.865Z,1.67
2022-08-24T13:28:21.264Z,1.88
2022-08-24T13:30:54.464Z,1.88
2022-08-24T13:33:33.386Z,1.70
2022-08-24T13:36:26.703Z,1.55
2022-08-24T13:39:04.716Z,1.88
2022-08-24T13:41:49.480Z,1.63
2022-08-24T13:44:19.168Z,1.80
2022-08-24T13:46:51.403Z,1.80
2022-08-24T13:49:34.166Z,1.80
2022-08-24T13:52:15.967Z,2.17
2022-08-24T13:55:06.644Z,2.65
2022-08-24T13:57:40.966Z,2.30
2022-08-24T14:00:33.191Z,1.95
2022-08-24T14:03:29.473Z,2.47
2022-08-24T14:06:11.135Z,2.50
2022-08-24T14:09:02.930Z,2.35
2022-08-24T14:11:55.634Z,2.75
2022-08-24T14:14:43.848Z,2.35
2022-08-24T14:17:42.053Z,2.70
2022-08-24T14:20:22.061Z,2.15
2022-08-24T14:22:58.775Z,2.50
2022-08-24T14:25:33.033Z,2.28
2022-08-24T14:27:59.477Z,3.00
2022-08-24T14:30:25.904Z,2.92
2022-08-24T14:33:01.320Z,2.75
2022-08-24T14:35:30.566Z,2.92
2022-08-24T14:38:24.442Z,2.72
2022-08-24T14:41:06.499Z,2.90
2022-08-24T14:43:54.239Z,2.53
2022-08-24T14:46:33.878Z,2.83
2022-08-24T14:49:45.018Z,3.05
2022-08-24T14:52:29.696Z,2.92
2022-08-24T14:55:06.746Z,3.17
2022-08-24T14:57:47.283Z,2.95
2022-08-24T15:00:17.753Z,3.03
2022-08-24T15:03:21.226Z,2.70
2022-08-24T15:06:27.974Z,3.22
2022-08-24T15:09:06.316Z,3.03
2022-08-24T15:11:36.836Z,2.75
2022-08-24T15:14:22.521Z,2.70
2022-08-24T15:17:13.824Z,2.88
2022-08-24T15:19:53.346Z,2.70
2022-08-24T15:22:25.938Z,3.00
2022-08-24T15:25:15.242Z,3.00
2022-08-24T15:27:53.595Z,3.17
2022-08-24T15:30:27.994Z,2.55
2022-08-24T15:33:08.881Z,3.17
2022-08-24T15:35:44.502Z,2.75
2022-08-24T15:38:24.484Z,3.15
2022-08-24T15:41:20.146Z,3.03
2022-08-24T15:43:46.555Z,3.10
2022-08-24T15:48:42.577Z,3.40
2022-08-24T15:51:09.319Z,3.25
2022-08-24T15:53:40.525Z,3.35
2022-08-24T15:56:29.911Z,3.60
2022-08-24T15:59:10.640Z,4.00
2022-08-24T16:01:55.782Z,3.70
2022-08-24T16:04:41.796Z,3.95
2022-08-24T16:07:13.202Z,3.28
2022-08-24T16:09:42.803Z,3.80
2022-08-24T16:12:13.862Z,4.30
2022-08-24T16:14:50.500Z,4.28
2022-08-24T16:17:26.634Z,4.78
2022-08-24T16:20:00.370Z,5.30
2022-08-24T16:22:31.877Z,5.22
2022-08-24T16:25:26.850Z,5.13
2022-08-24T16:28:09.264Z,4.45
2022-08-24T16:30:50.149Z,4.57
2022-08-24T16:33:32.213Z,4.68
2022-08-24T16:36:00.457Z,4.25
2022-08-24T16:38:31.469Z,4.28
2022-08-24T16:41:00.274Z,4.55
2022-08-24T16:43:28.510Z,4.53
2022-08-24T16:45:55.950Z,4.97
2022-08-24T16:48:25.196Z,4.95
2022-08-24T16:50:51.686Z,5.53
2022-08-24T16:53:18.156Z,5.70
2022-08-24T16:55:44.844Z,5.03
2022-08-24T16:58:11.414Z,5.30
2022-08-24T17:00:37.889Z,4.28
2022-08-24T17:03:04.405Z,4.90
2022-08-24T17:05:30.924Z,5.10
2022-08-24T17:07:59.441Z,4.75
2022-08-24T17:10:27.535Z,4.68
2022-08-24T17:12:54.360Z,4.20
2022-08-24T17:15:21.051Z,4.43
2022-08-24T17:18:03.147Z,5.20
2022-08-24T17:20:30.803Z,4.30
2022-08-24T17:22:58.175Z,4.13
2022-08-24T17:25:27.127Z,4.07
2022-08-24T17:27:58.582Z,5.18
2022-08-24T17:30:27.692Z,4.38
2022-08-24T17:32:57.797Z,4.30
2022-08-24T17:35:24.412Z,5.43
2022-08-24T17:37:52.712Z,5.10
2022-08-24T17:40:24.067Z,5.53
2022-08-24T17:42:51.765Z,6.30
2022-08-24T17:45:19.768Z,6.25
2022-08-24T17:47:46.620Z,6.38
2022-08-24T17:50:14.903Z,6.93
2022-08-24T17:52:42.643Z,7.05
2022-08-24T17:55:11.349Z,6.80
2022-08-24T17:57:39.030Z,6.40
2022-08-24T18:00:10.043Z,7.20
2022-08-24T18:02:39.975Z,6.68
2022-08-24T18:05:08.406Z,6.55
2022-08-24T18:07:52.659Z,6.43
2022-08-24T18:10:25.825Z,6.07
2022-08-24T18:12:53.117Z,6.45
2022-08-24T18:15:20.430Z,7.97
2022-08-24T18:17:49.732Z,7.60
2022-08-24T18:20:27.507Z,7.78
2022-08-24T18:22:54.444Z,8.07
2022-08-24T18:25:25.862Z,7.93
2022-08-24T18:27:55.550Z,8.27
2022-08-24T18:30:30.792Z,8.27
2022-08-24T18:32:59.893Z,7.78
2022-08-24T18:35:26.669Z,7.82
2022-08-24T18:37:53.179Z,7.53
2022-08-24T18:42:50.863Z,8.15
2022-08-24T18:45:18.156Z,8.40
2022-08-24T18:47:44.792Z,7.55
2022-08-24T18:50:19.844Z,7.43
2022-08-24T18:52:46.670Z,8.23
2022-08-24T18:55:13.761Z,7.60
2022-08-24T18:57:40.263Z,7.38
2022-08-24T19:00:09.761Z,6.68
2022-08-24T19:02:36.605Z,7.10
2022-08-24T19:05:11.158Z,7.00
2022-08-24T19:07:41.036Z,7.20
2022-08-24T19:10:10.181Z,6.50
2022-08-24T19:12:46.922Z,7.55
2022-08-24T19:15:29.151Z,7.25
2022-08-24T19:18:05.329Z,7.55
2022-08-24T19:20:33.373Z,7.25
2022-08-24T19:23:07.742Z,7.85
2022-08-24T19:25:35.528Z,7.20
2022-08-24T19:28:02.840Z,7.85
2022-08-24T19:30:29.384Z,7.70
2022-08-24T19:35:22.976Z,7.90
2022-08-24T19:37:49.723Z,7.63
2022-08-24T19:40:17.939Z,8.05
2022-08-24T19:42:50.740Z,8.55
2022-08-24T19:45:38.950Z,8.20
2022-08-24T19:48:05.990Z,8.63
2022-08-24T19:50:35.662Z,7.57
2022-08-24T19:53:04.425Z,7.63
2022-08-24T19:55:31.345Z,8.75
2022-08-24T19:58:24.163Z,7.55
2022-08-24T20:01:05.379Z,8.20
2022-08-24T20:03:31.936Z,7.82
2022-08-24T20:05:58.465Z,8.30
2022-08-24T20:08:24.986Z,8.55
2022-08-24T20:13:19.915Z,8.77
2022-08-24T20:15:46.613Z,8.05
2022-08-24T20:18:14.481Z,8.18
2022-08-24T20:20:41.377Z,8.68
2022-08-24T20:23:08.080Z,9.20
2022-08-24T20:28:27.812Z,8.73
2022-08-24T20:30:51.281Z,8.75
2022-08-24T20:33:21.160Z,8.90
2022-08-24T20:35:47.836Z,8.88
2022-08-24T20:40:42.860Z,9.50
2022-08-24T20:45:41.057Z,9.93
2022-08-24T20:48:11.889Z,9.40
2022-08-24T20:50:38.995Z,9.27
2022-08-24T20:53:06.166Z,9.40
2022-08-24T20:55:32.867Z,8.52
2022-08-24T20:58:03.073Z,9.10
2022-08-24T21:00:30.259Z,8.70
2022-08-24T21:02:58.070Z,9.80
2022-08-24T21:05:24.597Z,9.25
2022-08-24T21:07:51.856Z,8.68
2022-08-24T21:10:21.592Z,9.82
2022-08-24T21:12:52.092Z,8.63
2022-08-24T21:15:18.980Z,9.32
2022-08-24T21:17:45.644Z,10.27
2022-08-24T21:22:41.848Z,9.23
2022-08-24T21:25:09.926Z,9.80
2022-08-24T21:27:38.816Z,9.88
2022-08-24T21:30:08.055Z,9.95
2022-08-24T21:32:52.982Z,10.60
2022-08-24T21:35:19.883Z,10.65
2022-08-24T21:37:47.777Z,10.30
2022-08-24T21:40:16.208Z,10.30
2022-08-24T21:42:42.789Z,11.15
2022-08-24T21:45:09.770Z,10.43
2022-08-24T21:47:36.293Z,10.40
2022-08-24T21:50:04.158Z,11.70
2022-08-24T21:52:30.665Z,11.65
2022-08-24T21:54:57.373Z,10.90
2022-08-24T22:03:00.505Z,12.43
2022-08-24T22:05:27.374Z,12.57
2022-08-24T22:10:20.703Z,10.88
2022-08-24T22:12:47.750Z,11.07
2022-08-24T22:15:18.594Z,10.80
2022-08-24T22:17:52.628Z,11.68
2022-08-24T22:20:23.083Z,10.70
2022-08-24T22:22:50.857Z,11.27
2022-08-24T22:25:17.401Z,12.40
2022-08-24T22:27:45.878Z,12.95
2022-08-24T22:30:16.644Z,12.55
2022-08-24T22:32:44.256Z,12.88
2022-08-24T22:35:11.202Z,12.88
2022-08-24T22:37:37.908Z,13.43
2022-08-24T22:40:06.328Z,13.20
2022-08-24T22:42:39.650Z,12.73
2022-08-24T22:45:07.674Z,11.88
2022-08-24T22:47:34.398Z,11.82
2022-08-24T22:50:01.000Z,12.48
2022-08-24T22:54:58.670Z,12.13
2022-08-24T22:57:25.341Z,12.50
2022-08-24T22:59:53.426Z,12.82
2022-08-24T23:04:49.798Z,13.45
2022-08-24T23:07:16.789Z,13.40
2022-08-24T23:09:45.429Z,12.63
2022-08-24T23:12:17.580Z,13.40
2022-08-24T23:14:44.847Z,12.80
2022-08-24T23:17:11.947Z,11.63
2022-08-24T23:19:56.854Z,12.52
2022-08-24T23:22:23.509Z,12.60
2022-08-24T23:24:52.590Z,13.00
2022-08-24T23:27:20.912Z,12.48
2022-08-24T23:29:48.486Z,13.00
2022-08-24T23:32:17.823Z,13.88
2022-08-24T23:34:46.565Z,13.77
2022-08-24T23:37:14.211Z,13.75
2022-08-24T23:39:41.006Z,13.45
2022-08-24T23:42:07.615Z,15.07
2022-08-24T23:47:01.122Z,13.68
2022-08-24T23:49:29.772Z,13.90
2022-08-24T23:51:57.928Z,13.20
2022-08-24T23:54:25.786Z,14.02
2022-08-24T23:56:53.445Z,13.88
2022-08-24T23:59:24.070Z,13.52
